createdAt,value
2022-08-19T00:00:06.426Z,99.65
2022-08-19T00:01:06.435Z,99.35
2022-08-19T00:02:06.419Z,99.65
2022-08-19T00:03:06.409Z,99.35
2022-08-19T00:04:06.423Z,98.85
2022-08-19T00:05:06.386Z,99.35
2022-08-19T00:06:06.402Z,98.74
2022-08-19T00:07:06.409Z,98.85
2022-08-19T00:08:06.398Z,99.55
2022-08-19T00:09:06.412Z,99.85
2022-08-19T00:10:06.381Z,99.45
2022-08-19T00:11:06.371Z,99.05
2022-08-19T00:12:07.360Z,98.90
2022-08-19T00:13:06.362Z,99.25
2022-08-19T00:14:06.350Z,99.35
2022-08-19T00:15:06.462Z,99.15
2022-08-19T00:16:07.339Z,98.94
2022-08-19T00:17:06.350Z,98.70
2022-08-19T00:18:06.316Z,98.94
2022-08-19T00:19:06.321Z,99.75
2022-08-19T00:20:06.347Z,99.85
2022-08-19T00:21:06.306Z,99.55
2022-08-19T00:22:06.314Z,99.55
2022-08-19T00:23:06.291Z,99.45
2022-08-19T00:24:06.290Z,99.45
2022-08-19T00:25:06.279Z,99.25
2022-08-19T00:26:06.394Z,99.75
2022-08-19T00:27:25.927Z,99.95
2022-08-19T00:28:07.262Z,99.55
2022-08-19T00:29:06.270Z,99.75
2022-08-19T00:30:06.264Z,99.95
2022-08-19T00:31:06.275Z,99.25
2022-08-19T00:32:06.258Z,99.45
2022-08-19T00:33:06.261Z,99.95
2022-08-19T00:34:06.829Z,99.25
2022-08-19T00:35:06.228Z,99.95
2022-08-19T00:36:06.229Z,99.99
2022-08-19T00:37:06.327Z,99.99
2022-08-19T00:38:06.243Z,99.99
2022-08-19T00:39:06.211Z,99.65
2022-08-19T00:40:06.260Z,99.99
2022-08-19T00:41:06.230Z,99.85
2022-08-19T00:42:06.228Z,99.99
2022-08-19T00:43:06.198Z,99.75
2022-08-19T00:44:06.192Z,99.99
2022-08-19T00:45:06.184Z,99.99
2022-08-19T00:46:06.179Z,99.99
2022-08-19T00:47:06.172Z,99.99
2022-08-19T00:48:14.728Z,99.99
2022-08-19T00:49:07.166Z,99.99
2022-08-19T00:50:06.145Z,99.99
2022-08-19T00:51:06.133Z,99.99
2022-08-19T00:52:06.135Z,99.85
2022-08-19T00:53:06.153Z,99.99
2022-08-19T00:54:06.137Z,99.99
2022-08-19T00:55:06.144Z,99.99
2022-08-19T00:56:06.114Z,99.99
2022-08-19T00:57:06.100Z,99.99
2022-08-19T00:58:06.108Z,99.99
2022-08-19T00:59:06.211Z,99.99
2022-08-19T01:00:06.094Z,99.99
2022-08-19T01:01:06.116Z,99.99
2022-08-19T01:02:06.082Z,99.99
2022-08-19T01:03:06.061Z,99.99
2022-08-19T01:04:06.079Z,99.99
2022-08-19T01:05:06.068Z,99.99
2022-08-19T01:06:06.067Z,99.99
2022-08-19T01:07:06.042Z,99.99
2022-08-19T01:08:06.048Z,99.99
2022-08-19T01:09:06.043Z,99.99
2022-08-19T01:10:06.053Z,99.99
2022-08-19T01:11:06.102Z,99.99
2022-08-19T01:12:06.020Z,99.99
2022-08-19T01:13:05.999Z,99.99
2022-08-19T01:14:06.017Z,99.99
2022-08-19T01:15:06.044Z,99.99
2022-08-19T01:16:05.999Z,99.99
2022-08-19T01:17:05.988Z,99.99
2022-08-19T01:18:06.028Z,99.99
2022-08-19T01:19:05.990Z,99.95
2022-08-19T01:20:05.977Z,99.99
2022-08-19T01:21:05.981Z,99.99
2022-08-19T01:22:14.234Z,99.99
2022-08-19T01:23:06.957Z,99.99
2022-08-19T01:24:05.955Z,99.99
2022-08-19T01:25:10.740Z,99.90
2022-08-19T01:26:06.957Z,99.20
2022-08-19T01:27:05.950Z,99.20
2022-08-19T01:28:10.549Z,99.00
2022-08-19T01:29:06.918Z,99.71
2022-08-19T01:30:05.917Z,99.46
2022-08-19T01:31:07.858Z,98.90
2022-08-19T01:32:06.752Z,98.70
2022-08-19T01:33:05.897Z,98.19
2022-08-19T01:34:05.886Z,98.10
2022-08-19T01:35:05.899Z,98.55
2022-08-19T01:36:05.885Z,98.65
2022-08-19T01:37:05.919Z,99.15
2022-08-19T01:38:05.873Z,98.95
2022-08-19T01:39:05.875Z,98.95
2022-08-19T01:40:09.327Z,98.85
2022-08-19T01:41:09.778Z,97.44
2022-08-19T01:42:05.869Z,97.44
2022-08-19T01:43:05.881Z,97.95
2022-08-19T01:44:17.366Z,97.69
2022-08-19T01:45:06.836Z,97.44
2022-08-19T01:46:05.839Z,97.75
2022-08-19T01:47:05.831Z,97.95
2022-08-19T01:48:05.838Z,97.64
2022-08-19T01:49:05.813Z,96.54
2022-08-19T01:50:05.813Z,97.44
2022-08-19T01:51:05.810Z,97.14
2022-08-19T01:52:05.809Z,97.34
2022-08-19T01:53:06.082Z,97.85
2022-08-19T01:54:05.877Z,98.00
2022-08-19T01:55:05.771Z,98.15
2022-08-19T01:56:05.788Z,98.00
2022-08-19T01:57:05.754Z,98.15
2022-08-19T01:58:05.762Z,98.30
2022-08-19T01:59:05.797Z,98.35
2022-08-19T02:00:05.751Z,98.05
2022-08-19T02:01:05.817Z,97.70
2022-08-19T02:02:05.730Z,98.65
2022-08-19T02:03:05.726Z,98.65
2022-08-19T02:04:05.741Z,98.35
2022-08-19T02:05:05.741Z,98.95
2022-08-19T02:06:05.714Z,98.25
2022-08-19T02:07:05.717Z,98.85
2022-08-19T02:08:05.713Z,98.35
2022-08-19T02:09:05.703Z,98.65
2022-08-19T02:10:12.280Z,97.75
2022-08-19T02:11:06.683Z,98.25
2022-08-19T02:12:05.694Z,97.95
2022-08-19T02:13:05.691Z,98.15
2022-08-19T02:14:05.653Z,98.05
2022-08-19T02:15:05.666Z,99.00
2022-08-19T02:16:05.679Z,97.99
2022-08-19T02:17:05.664Z,98.60
2022-08-19T02:18:05.650Z,99.40
2022-08-19T02:19:05.646Z,99.00
2022-08-19T02:20:05.643Z,98.90
2022-08-19T02:21:05.655Z,98.90
2022-08-19T02:22:05.649Z,99.40
2022-08-19T02:23:05.638Z,98.75
2022-08-19T02:24:06.627Z,99.20
2022-08-19T02:25:05.620Z,98.65
2022-08-19T02:26:05.597Z,99.00
2022-08-19T02:27:05.735Z,99.05
2022-08-19T02:28:05.591Z,98.80
2022-08-19T02:29:05.601Z,99.15
2022-08-19T02:30:05.592Z,98.95
2022-08-19T02:31:05.583Z,98.95
2022-08-19T02:32:05.590Z,98.85
2022-08-19T02:33:05.574Z,98.95
2022-08-19T02:34:05.569Z,99.15
2022-08-19T02:35:12.319Z,98.85
2022-08-19T02:36:06.554Z,99.05
2022-08-19T02:37:05.550Z,98.85
2022-08-19T02:38:05.580Z,98.85
2022-08-19T02:39:05.532Z,99.15
2022-08-19T02:40:05.557Z,99.15
2022-08-19T02:41:06.525Z,99.05
2022-08-19T02:42:05.515Z,98.75
2022-08-19T02:43:05.629Z,99.15
2022-08-19T02:44:30.663Z,99.05
2022-08-19T02:45:05.497Z,98.25
2022-08-19T02:46:05.502Z,97.85
2022-08-19T02:47:05.504Z,98.15
2022-08-19T02:48:05.489Z,97.85
2022-08-19T02:49:06.510Z,97.95
2022-08-19T02:50:05.474Z,98.10
2022-08-19T02:51:05.471Z,97.60
2022-08-19T02:52:05.466Z,97.95
2022-08-19T02:53:05.459Z,98.10
2022-08-19T02:54:05.457Z,98.65
2022-08-19T02:55:05.457Z,98.10
2022-08-19T02:56:05.434Z,97.80
2022-08-19T02:57:05.436Z,98.00
2022-08-19T02:58:05.428Z,98.00
2022-08-19T02:59:05.429Z,97.80
2022-08-19T03:00:05.441Z,98.05
2022-08-19T03:01:05.437Z,98.40
2022-08-19T03:02:05.425Z,98.60
2022-08-19T03:03:05.413Z,98.45
2022-08-19T03:04:05.401Z,98.80
2022-08-19T03:05:05.492Z,99.11
2022-08-19T03:06:05.390Z,99.01
2022-08-19T03:07:10.949Z,98.91
2022-08-19T03:08:06.384Z,99.21
2022-08-19T03:09:05.365Z,99.31
2022-08-19T03:10:05.368Z,99.21
2022-08-19T03:11:05.379Z,99.11
2022-08-19T03:12:05.345Z,98.71
2022-08-19T03:13:05.340Z,99.05
2022-08-19T03:14:05.346Z,98.65
2022-08-19T03:15:05.332Z,99.35
2022-08-19T03:16:05.364Z,99.26
2022-08-19T03:17:05.331Z,99.55
2022-08-19T03:18:05.322Z,99.71
2022-08-19T03:19:05.311Z,99.66
2022-08-19T03:20:05.298Z,99.35
2022-08-19T03:21:05.293Z,99.55
2022-08-19T03:22:05.336Z,99.46
2022-08-19T03:23:05.300Z,99.76
2022-08-19T03:24:05.279Z,99.55
2022-08-19T03:25:05.292Z,99.26
2022-08-19T03:26:16.681Z,99.96
2022-08-19T03:27:05.302Z,99.76
2022-08-19T03:28:05.263Z,99.99
2022-08-19T03:29:05.547Z,99.99
2022-08-19T03:30:05.263Z,99.76
2022-08-19T03:31:05.261Z,99.96
2022-08-19T03:32:06.263Z,99.99
2022-08-19T03:33:05.492Z,99.46
2022-08-19T03:34:05.226Z,99.46
2022-08-19T03:35:05.229Z,99.86
2022-08-19T03:36:05.228Z,99.76
2022-08-19T03:37:05.202Z,99.99
2022-08-19T03:38:05.318Z,99.71
2022-08-19T03:39:05.206Z,99.31
2022-08-19T03:40:05.220Z,99.51
2022-08-19T03:41:05.176Z,99.81
2022-08-19T03:42:38.481Z,99.99
2022-08-19T03:43:06.302Z,99.71
2022-08-19T03:44:05.160Z,99.81
2022-08-19T03:45:05.166Z,99.41
2022-08-19T03:46:05.171Z,98.80
2022-08-19T03:47:39.295Z,98.80
2022-08-19T03:48:05.159Z,99.11
2022-08-19T03:49:05.258Z,99.01
2022-08-19T03:50:05.135Z,98.50
2022-08-19T03:51:05.144Z,99.01
2022-08-19T03:52:05.138Z,98.86
2022-08-19T03:53:05.118Z,98.96
2022-08-19T03:54:05.140Z,98.56
2022-08-19T03:55:05.108Z,98.86
2022-08-19T03:56:05.093Z,98.71
2022-08-19T03:57:05.095Z,98.25
2022-08-19T03:58:05.092Z,98.76
2022-08-19T03:59:05.107Z,98.60
2022-08-19T04:00:12.958Z,98.96
2022-08-19T04:01:05.126Z,98.80
2022-08-19T04:02:05.071Z,98.76
2022-08-19T04:03:05.111Z,99.46
2022-08-19T04:04:05.059Z,99.06
2022-08-19T04:05:05.068Z,99.06
2022-08-19T04:06:05.040Z,99.06
2022-08-19T04:07:05.049Z,99.16
2022-08-19T04:08:05.041Z,99.06
2022-08-19T04:09:05.025Z,99.16
2022-08-19T04:10:05.031Z,99.96
2022-08-19T04:11:05.048Z,99.06
2022-08-19T04:12:05.033Z,99.16
2022-08-19T04:13:05.037Z,98.86
2022-08-19T04:14:05.007Z,99.16
2022-08-19T04:15:05.007Z,99.26
2022-08-19T04:16:05.101Z,98.96
2022-08-19T04:17:04.997Z,98.86
2022-08-19T04:18:04.986Z,99.16
2022-08-19T04:19:04.987Z,98.96
2022-08-19T04:20:06.907Z,98.66
2022-08-19T04:21:04.966Z,98.96
2022-08-19T04:22:04.973Z,98.96
2022-08-19T04:23:04.947Z,98.71
2022-08-19T04:24:04.936Z,99.36
2022-08-19T04:25:04.962Z,99.16
2022-08-19T04:26:04.937Z,99.16
2022-08-19T04:27:04.962Z,99.36
2022-08-19T04:28:04.931Z,99.76
2022-08-19T04:29:06.553Z,99.76
2022-08-19T04:30:04.910Z,99.46
2022-08-19T04:31:04.898Z,99.06
2022-08-19T04:32:08.830Z,99.36
2022-08-19T04:33:05.013Z,99.16
2022-08-19T04:34:04.903Z,99.66
2022-08-19T04:35:17.977Z,99.56
2022-08-19T04:36:05.883Z,99.56
2022-08-19T04:37:04.880Z,99.16
2022-08-19T04:38:04.979Z,99.56
2022-08-19T04:39:04.879Z,99.36
2022-08-19T04:40:04.901Z,99.06
2022-08-19T04:41:04.862Z,99.36
2022-08-19T04:42:04.868Z,99.66
2022-08-19T04:43:04.887Z,99.76
2022-08-19T04:44:04.891Z,99.06
2022-08-19T04:45:05.397Z,99.06
2022-08-19T04:46:04.824Z,99.06
2022-08-19T04:47:11.409Z,99.66
2022-08-19T04:48:26.763Z,99.56
2022-08-19T04:49:10.433Z,99.56
2022-08-19T04:50:04.821Z,99.56
2022-08-19T04:51:04.814Z,99.26
2022-08-19T04:52:04.820Z,99.66
2022-08-19T04:53:04.781Z,99.26
2022-08-19T04:54:04.774Z,99.46
2022-08-19T04:55:04.807Z,98.96
2022-08-19T04:56:04.786Z,99.26
2022-08-19T04:57:04.761Z,99.06
2022-08-19T04:58:04.784Z,99.46
2022-08-19T04:59:04.782Z,99.36
2022-08-19T05:00:04.786Z,99.46
2022-08-19T05:01:04.854Z,99.16
2022-08-19T05:02:04.750Z,99.76
2022-08-19T05:03:04.741Z,99.56
2022-08-19T05:04:04.744Z,99.66
2022-08-19T05:05:04.731Z,99.76
2022-08-19T05:06:04.823Z,99.26
2022-08-19T05:07:04.711Z,99.36
2022-08-19T05:08:04.713Z,99.26
2022-08-19T05:09:04.709Z,99.21
2022-08-19T05:10:04.688Z,99.41
2022-08-19T05:11:04.827Z,99.87
2022-08-19T05:12:04.696Z,99.06
2022-08-19T05:13:04.706Z,98.46
2022-08-19T05:14:04.689Z,99.16
2022-08-19T05:15:04.693Z,98.81
2022-08-19T05:16:04.673Z,98.81
2022-08-19T05:17:26.093Z,98.81
2022-08-19T05:18:05.662Z,99.11
2022-08-19T05:19:04.660Z,98.81
2022-08-19T05:20:04.653Z,98.11
2022-08-19T05:21:04.654Z,98.21
2022-08-19T05:22:04.662Z,97.61
2022-08-19T05:23:12.890Z,98.21
2022-08-19T05:24:05.654Z,97.45
2022-08-19T05:25:12.773Z,97.61
2022-08-19T05:26:05.617Z,97.45
2022-08-19T05:27:04.612Z,97.41
2022-08-19T05:28:04.638Z,96.70
2022-08-19T05:29:04.584Z,97.20
2022-08-19T05:30:04.589Z,97.11
2022-08-19T05:31:04.588Z,96.50
2022-08-19T05:32:04.576Z,96.80
2022-08-19T05:33:04.716Z,96.80
2022-08-19T05:34:04.576Z,97.00
2022-08-19T05:35:05.552Z,96.80
2022-08-19T05:36:04.577Z,96.60
2022-08-19T05:37:04.566Z,97.06
2022-08-19T05:38:04.544Z,96.41
2022-08-19T05:39:04.571Z,96.60
2022-08-19T05:40:04.620Z,96.76
2022-08-19T05:41:04.527Z,96.36
2022-08-19T05:42:04.540Z,96.26
2022-08-19T05:43:04.517Z,95.55
2022-08-19T05:44:04.654Z,95.55
2022-08-19T05:45:04.519Z,95.25
2022-08-19T05:46:04.501Z,95.20
2022-08-19T05:47:04.493Z,95.75
2022-08-19T05:48:04.489Z,94.95
2022-08-19T05:49:04.508Z,95.15
2022-08-19T05:50:05.150Z,94.65
2022-08-19T05:51:04.486Z,93.44
2022-08-19T05:52:04.468Z,93.44
2022-08-19T05:53:04.482Z,91.84
2022-08-19T05:54:04.458Z,92.34
2022-08-19T05:55:04.493Z,92.24
2022-08-19T05:56:04.455Z,91.30
2022-08-19T05:57:04.461Z,90.89
2022-08-19T05:58:04.446Z,91.19
2022-08-19T05:59:04.458Z,91.09
2022-08-19T06:00:04.421Z,90.39
2022-08-19T06:01:04.459Z,90.09
2022-08-19T06:02:04.413Z,89.49
2022-08-19T06:03:04.411Z,89.04
2022-08-19T06:04:04.399Z,88.84
2022-08-19T06:05:04.414Z,88.14
2022-08-19T06:06:04.429Z,88.84
2022-08-19T06:07:12.310Z,88.04
2022-08-19T06:08:04.390Z,87.60
2022-08-19T06:09:04.396Z,87.94
2022-08-19T06:10:04.372Z,87.80
2022-08-19T06:11:04.359Z,87.80
2022-08-19T06:12:05.360Z,87.90
2022-08-19T06:13:06.339Z,87.90
2022-08-19T06:14:05.475Z,87.90
2022-08-19T06:15:05.468Z,87.60
2022-08-19T06:16:06.847Z,88.06
2022-08-19T06:17:07.111Z,86.66
2022-08-19T06:18:05.345Z,86.35
2022-08-19T06:19:04.333Z,87.26
2022-08-19T06:20:04.313Z,86.96
2022-08-19T06:21:04.312Z,87.16
2022-08-19T06:22:04.302Z,87.12
2022-08-19T06:23:04.420Z,87.32
2022-08-19T06:24:05.309Z,85.96
2022-08-19T06:25:04.296Z,86.01
2022-08-19T06:26:04.282Z,85.31
2022-08-19T06:27:04.278Z,86.25
2022-08-19T06:28:19.132Z,85.85
2022-08-19T06:29:06.257Z,86.05
2022-08-19T06:30:04.272Z,85.96
2022-08-19T06:31:04.285Z,85.75
2022-08-19T06:32:04.238Z,85.46
2022-08-19T06:33:04.234Z,85.85
2022-08-19T06:34:04.257Z,85.85
2022-08-19T06:35:04.249Z,85.96
2022-08-19T06:36:04.234Z,86.90
2022-08-19T06:37:04.221Z,87.46
2022-08-19T06:38:04.228Z,86.30
2022-08-19T06:39:04.246Z,86.30
2022-08-19T06:40:04.232Z,85.46
2022-08-19T06:41:07.335Z,85.85
2022-08-19T06:42:04.215Z,85.69
2022-08-19T06:43:04.195Z,84.95
2022-08-19T06:44:04.165Z,85.10
2022-08-19T06:45:04.222Z,84.69
2022-08-19T06:46:05.180Z,84.89
2022-08-19T06:47:09.607Z,85.39
2022-08-19T06:48:05.167Z,84.65
2022-08-19T06:49:04.177Z,84.45
2022-08-19T06:50:05.464Z,84.95
2022-08-19T06:51:04.159Z,85.75
2022-08-19T06:52:04.132Z,85.46
2022-08-19T06:53:04.743Z,85.46
2022-08-19T06:54:04.137Z,85.85
2022-08-19T06:55:06.384Z,84.65
2022-08-19T06:56:04.134Z,83.95
2022-08-19T06:57:04.119Z,83.45
2022-08-19T06:58:04.099Z,83.65
2022-08-19T06:59:04.113Z,83.55
2022-08-19T07:00:04.079Z,82.95
2022-08-19T07:01:07.096Z,84.25
2022-08-19T07:02:05.208Z,82.31
2022-08-19T07:03:07.725Z,82.35
2022-08-19T07:04:04.064Z,82.95
2022-08-19T07:05:04.075Z,81.95
2022-08-19T07:06:05.385Z,82.24
2022-08-19T07:07:19.563Z,81.91
2022-08-19T07:08:05.164Z,83.01
2022-08-19T07:09:04.054Z,82.81
2022-08-19T07:10:06.118Z,82.21
2022-08-19T07:11:04.044Z,82.71
2022-08-19T07:12:04.067Z,83.07
2022-08-19T07:13:04.026Z,82.73
2022-08-19T07:14:04.024Z,81.37
2022-08-19T07:15:04.034Z,82.53
2022-08-19T07:16:05.621Z,80.33
2022-08-19T07:17:04.023Z,81.33
2022-08-19T07:18:04.100Z,81.03
2022-08-19T07:19:14.486Z,81.13
2022-08-19T07:20:09.470Z,80.97
2022-08-19T07:21:05.063Z,82.03
2022-08-19T07:22:03.984Z,81.93
2022-08-19T07:23:07.191Z,81.07
2022-08-19T07:24:06.747Z,82.13
2022-08-19T07:25:03.962Z,80.67
2022-08-19T07:27:10.336Z,81.73
2022-08-19T07:28:05.000Z,81.77
2022-08-19T07:29:03.973Z,80.87
2022-08-19T07:30:03.933Z,81.67
2022-08-19T07:31:03.939Z,81.27
2022-08-19T07:32:03.918Z,82.13
2022-08-19T07:33:04.952Z,79.36
2022-08-19T07:34:04.135Z,79.06
2022-08-19T07:35:03.913Z,80.83
2022-08-19T07:36:03.987Z,80.13
2022-08-19T07:37:03.904Z,79.33
2022-08-19T07:38:03.904Z,79.89
2022-08-19T07:39:04.010Z,79.23
2022-08-19T07:40:03.941Z,79.33
2022-08-19T07:41:03.881Z,79.99
2022-08-19T07:42:03.881Z,78.75
2022-08-19T07:43:03.874Z,78.96
2022-08-19T07:44:03.873Z,77.56
2022-08-19T07:45:03.882Z,78.75
2022-08-19T07:46:03.890Z,77.95
2022-08-19T07:47:03.848Z,78.25
2022-08-19T07:48:04.310Z,79.05
2022-08-19T07:49:03.832Z,78.02
2022-08-19T07:50:03.862Z,77.72
2022-08-19T07:51:03.830Z,77.38
2022-08-19T07:52:03.827Z,76.78
2022-08-19T07:53:03.820Z,77.78
2022-08-19T07:54:03.797Z,77.51
2022-08-19T07:55:03.805Z,77.51
2022-08-19T07:56:03.824Z,77.62
2022-08-19T07:57:03.779Z,77.48
2022-08-19T07:58:03.784Z,77.18
2022-08-19T07:59:03.756Z,78.02
2022-08-19T08:00:03.774Z,77.82
2022-08-19T08:01:03.794Z,77.25
2022-08-19T08:02:03.787Z,77.22
2022-08-19T08:03:03.761Z,77.25
2022-08-19T08:04:03.768Z,78.42
2022-08-19T08:05:03.753Z,79.46
2022-08-19T08:06:03.744Z,78.16
2022-08-19T08:07:03.750Z,78.05
2022-08-19T08:08:03.735Z,77.75
2022-08-19T08:09:03.726Z,77.51
2022-08-19T08:10:03.833Z,77.95
2022-08-19T08:11:03.707Z,77.86
2022-08-19T08:12:17.963Z,78.19
2022-08-19T08:13:10.150Z,78.39
2022-08-19T08:14:04.773Z,77.79
2022-08-19T08:15:03.683Z,78.99
2022-08-19T08:16:03.678Z,77.69
2022-08-19T08:17:03.674Z,77.69
2022-08-19T08:18:04.815Z,77.95
2022-08-19T08:19:03.663Z,77.15
2022-08-19T08:20:04.660Z,77.66
2022-08-19T08:21:03.661Z,76.95
2022-08-19T08:22:03.673Z,76.65
2022-08-19T08:23:03.680Z,77.82
2022-08-19T08:24:03.656Z,76.72
2022-08-19T08:25:03.640Z,77.32
2022-08-19T08:26:03.613Z,77.51
2022-08-19T08:27:03.631Z,77.62
2022-08-19T08:28:03.624Z,75.82
2022-08-19T08:29:13.026Z,75.78
2022-08-19T08:30:03.598Z,76.02
2022-08-19T08:31:03.586Z,75.62
2022-08-19T08:32:14.060Z,75.92
2022-08-19T08:33:03.623Z,76.02
2022-08-19T08:34:03.681Z,75.62
2022-08-19T08:35:03.577Z,75.82
2022-08-19T08:36:04.162Z,76.72
2022-08-19T08:37:03.570Z,76.42
2022-08-19T08:38:03.575Z,75.92
2022-08-19T08:39:03.560Z,76.26
2022-08-19T08:40:03.606Z,75.96
2022-08-19T08:41:03.555Z,76.52
2022-08-19T08:42:10.187Z,76.86
2022-08-19T08:44:03.525Z,77.12
2022-08-19T08:45:03.622Z,76.06
2022-08-19T08:46:03.529Z,77.82
2022-08-19T08:47:03.544Z,76.42
2022-08-19T08:48:03.519Z,77.58
2022-08-19T08:49:03.498Z,76.88
2022-08-19T08:50:03.546Z,74.58
2022-08-19T08:51:03.595Z,74.38
2022-08-19T08:52:03.489Z,74.35
2022-08-19T08:53:03.486Z,74.65
2022-08-19T08:54:03.491Z,74.81
2022-08-19T08:55:03.469Z,74.77
2022-08-19T08:56:04.508Z,73.48
2022-08-19T08:57:03.467Z,72.95
2022-08-19T08:58:03.464Z,71.72
2022-08-19T08:59:03.470Z,71.39
2022-08-19T09:00:03.469Z,70.98
2022-08-19T09:01:03.464Z,71.15
2022-08-19T09:02:03.584Z,70.59
2022-08-19T09:03:03.442Z,69.36
2022-08-19T09:04:03.873Z,70.59
2022-08-19T09:05:03.443Z,70.79
2022-08-19T09:06:03.421Z,70.72
2022-08-19T09:07:03.429Z,69.53
2022-08-19T09:08:04.408Z,70.75
2022-08-19T09:09:03.412Z,68.76
2022-08-19T09:10:03.398Z,68.00
2022-08-19T09:11:03.395Z,68.33
2022-08-19T09:12:03.373Z,69.16
2022-08-19T09:13:03.390Z,70.62
2022-08-19T09:14:04.370Z,69.49
2022-08-19T09:15:03.380Z,67.07
2022-08-19T09:16:03.378Z,66.74
2022-08-19T09:17:03.368Z,65.29
2022-08-19T09:18:03.373Z,64.27
2022-08-19T09:19:03.330Z,65.20
2022-08-19T09:20:03.331Z,61.50
2022-08-19T09:21:03.347Z,61.90
2022-08-19T09:22:03.321Z,62.46
2022-08-19T09:23:03.338Z,61.87
2022-08-19T09:24:03.749Z,61.51
2022-08-19T09:25:03.322Z,59.08
2022-08-19T09:26:03.321Z,59.34
2022-08-19T09:27:07.971Z,59.09
2022-08-19T09:28:05.896Z,59.00
2022-08-19T09:29:04.422Z,56.80
2022-08-19T09:30:03.300Z,57.39
2022-08-19T09:31:03.278Z,58.28
2022-08-19T09:32:03.296Z,56.67
2022-08-19T09:33:03.278Z,58.25
2022-08-19T09:34:03.292Z,57.04
2022-08-19T09:35:03.510Z,56.08
2022-08-19T09:36:04.264Z,57.78
2022-08-19T09:37:03.258Z,57.81
2022-08-19T09:38:03.237Z,58.86
2022-08-19T09:39:03.229Z,58.88
2022-08-19T09:40:03.332Z,60.07
2022-08-19T09:41:03.238Z,60.10
2022-08-19T09:42:03.225Z,61.21
2022-08-19T09:43:03.215Z,61.90
2022-08-19T09:44:04.217Z,61.83
2022-08-19T09:45:05.006Z,63.42
2022-08-19T09:46:03.335Z,62.99
2022-08-19T09:47:03.209Z,60.89
2022-08-19T09:48:35.944Z,61.58
2022-08-19T09:49:06.665Z,59.34
2022-08-19T09:50:03.190Z,58.50
2022-08-19T09:51:03.205Z,57.91
2022-08-19T09:52:03.186Z,56.61
2022-08-19T09:53:03.181Z,58.91
2022-08-19T09:54:04.535Z,59.88
2022-08-19T09:55:07.358Z,55.99
2022-08-19T09:56:04.199Z,56.88
2022-08-19T09:57:03.747Z,56.53
2022-08-19T09:58:03.160Z,55.91
2022-08-19T09:59:03.143Z,55.62
2022-08-19T10:00:03.132Z,56.77
2022-08-19T10:01:03.157Z,56.45
2022-08-19T10:02:03.931Z,55.93
2022-08-19T10:03:03.504Z,55.88
2022-08-19T10:04:07.671Z,55.79
2022-08-19T10:05:04.104Z,55.76
2022-08-19T10:06:03.102Z,54.77
2022-08-19T10:07:03.095Z,54.38
2022-08-19T10:08:04.466Z,55.39
2022-08-19T10:09:03.084Z,56.30
2022-08-19T10:10:03.086Z,56.13
2022-08-19T10:11:27.345Z,57.81
2022-08-19T10:12:04.097Z,54.46
2022-08-19T10:13:03.121Z,56.85
2022-08-19T10:14:03.067Z,56.98
2022-08-19T10:15:03.053Z,58.56
2022-08-19T10:16:03.074Z,57.28
2022-08-19T10:17:04.588Z,56.09
2022-08-19T10:18:03.038Z,57.20
2022-08-19T10:19:03.670Z,58.12
2022-08-19T10:20:03.055Z,58.54
2022-08-19T10:21:03.036Z,58.22
2022-08-19T10:22:03.026Z,57.40
2022-08-19T10:23:03.051Z,56.68
2022-08-19T10:24:03.054Z,55.87
2022-08-19T10:25:03.026Z,54.78
2022-08-19T10:26:03.093Z,55.66
2022-08-19T10:27:02.995Z,56.85
2022-08-19T10:28:03.010Z,56.56
2022-08-19T10:29:03.009Z,57.30
2022-08-19T10:30:03.111Z,58.61
2022-08-19T10:31:02.995Z,59.23
2022-08-19T10:32:03.378Z,58.18
2022-08-19T10:33:08.465Z,59.81
2022-08-19T10:34:04.955Z,60.54
2022-08-19T10:35:02.976Z,60.44
2022-08-19T10:36:02.966Z,60.94
2022-08-19T10:37:02.954Z,61.33
2022-08-19T10:38:03.236Z,62.23
2022-08-19T10:39:02.935Z,61.10
2022-08-19T10:40:03.053Z,58.23
2022-08-19T10:41:02.959Z,60.75
2022-08-19T10:42:02.941Z,59.95
2022-08-19T10:43:02.930Z,59.89
2022-08-19T10:44:04.371Z,59.95
2022-08-19T10:45:02.979Z,57.56
2022-08-19T10:46:03.110Z,58.34
2022-08-19T10:47:02.907Z,59.44
2022-08-19T10:48:02.875Z,59.53
2022-08-19T10:49:02.901Z,59.80
2022-08-19T10:50:02.878Z,59.28
2022-08-19T10:51:02.889Z,59.34
2022-08-19T10:52:03.004Z,57.84
2022-08-19T10:53:02.865Z,56.73
2022-08-19T10:54:03.868Z,56.50
2022-08-19T10:55:05.364Z,55.79
2022-08-19T10:56:03.868Z,54.03
2022-08-19T10:57:02.951Z,56.30
2022-08-19T10:58:03.014Z,54.38
2022-08-19T10:59:02.826Z,54.31
2022-08-19T11:00:02.818Z,54.93
2022-08-19T11:01:02.873Z,54.36
2022-08-19T11:02:02.810Z,56.71
2022-08-19T11:03:02.917Z,55.89
2022-08-19T11:04:02.793Z,54.51
2022-08-19T11:05:05.575Z,54.38
2022-08-19T11:06:04.781Z,54.36
2022-08-19T11:07:02.789Z,54.55
2022-08-19T11:08:02.968Z,55.27
2022-08-19T11:09:03.779Z,53.99
2022-08-19T11:10:02.809Z,53.92
2022-08-19T11:11:02.768Z,56.58
2022-08-19T11:12:04.654Z,55.92
2022-08-19T11:13:03.869Z,57.56
2022-08-19T11:14:02.760Z,57.65
2022-08-19T11:15:02.749Z,58.74
2022-08-19T11:16:06.802Z,59.44
2022-08-19T11:17:04.738Z,60.62
2022-08-19T11:18:02.733Z,57.70
2022-08-19T11:19:02.904Z,55.92
2022-08-19T11:20:02.735Z,55.05
2022-08-19T11:21:02.714Z,55.75
2022-08-19T11:22:02.775Z,55.68
2022-08-19T11:23:02.717Z,56.07
2022-08-19T11:24:02.739Z,56.57
2022-08-19T11:25:02.691Z,56.04
2022-08-19T11:26:02.698Z,54.76
2022-08-19T11:27:02.693Z,55.82
2022-08-19T11:28:02.687Z,56.09
2022-08-19T11:29:02.776Z,54.68
2022-08-19T11:30:02.779Z,54.75
2022-08-19T11:31:02.665Z,52.53
2022-08-19T11:32:02.661Z,52.21
2022-08-19T11:33:02.670Z,54.23
2022-08-19T11:34:02.686Z,54.46
2022-08-19T11:35:02.699Z,56.50
2022-08-19T11:36:02.653Z,54.88
2022-08-19T11:37:02.629Z,56.09
2022-08-19T11:38:02.629Z,54.90
2022-08-19T11:39:02.611Z,56.81
2022-08-19T11:40:02.748Z,55.43
2022-08-19T11:41:02.642Z,55.69
2022-08-19T11:42:02.622Z,55.66
2022-08-19T11:43:02.606Z,53.30
2022-08-19T11:44:02.599Z,54.75
2022-08-19T11:45:02.582Z,53.94
2022-08-19T11:46:02.708Z,52.73
2022-08-19T11:47:08.893Z,53.42
2022-08-19T11:48:02.579Z,53.12
2022-08-19T11:49:02.597Z,52.23
2022-08-19T11:50:02.559Z,52.92
2022-08-19T11:51:02.572Z,53.49
2022-08-19T11:52:02.590Z,51.52
2022-08-19T11:53:02.556Z,50.34
2022-08-19T11:54:02.534Z,50.66
2022-08-19T11:55:02.543Z,50.09
2022-08-19T11:56:02.546Z,51.69
2022-08-19T11:57:02.560Z,51.84
2022-08-19T11:58:02.519Z,53.12
2022-08-19T11:59:02.522Z,53.15
2022-08-19T12:00:02.526Z,52.06
2022-08-19T12:01:02.512Z,51.54
2022-08-19T12:02:02.513Z,52.11
2022-08-19T12:03:02.531Z,52.51
2022-08-19T12:04:02.551Z,52.19
2022-08-19T12:05:02.506Z,50.12
2022-08-19T12:06:02.478Z,53.34
2022-08-19T12:07:02.481Z,52.50
2022-08-19T12:08:02.496Z,52.63
2022-08-19T12:09:02.468Z,52.31
2022-08-19T12:10:02.457Z,50.09
2022-08-19T12:11:02.474Z,49.40
2022-08-19T12:12:02.461Z,50.02
2022-08-19T12:13:02.474Z,51.03
2022-08-19T12:14:02.466Z,51.62
2022-08-19T12:15:02.432Z,52.01
2022-08-19T12:16:02.439Z,50.54
2022-08-19T12:17:02.439Z,51.81
2022-08-19T12:18:02.426Z,49.67
2022-08-19T12:19:02.466Z,50.49
2022-08-19T12:20:02.417Z,49.33
2022-08-19T12:21:02.470Z,51.87
2022-08-19T12:22:02.403Z,51.64
2022-08-19T12:23:02.403Z,50.56
2022-08-19T12:24:02.386Z,50.85
2022-08-19T12:25:02.505Z,50.14
2022-08-19T12:26:02.367Z,49.35
2022-08-19T12:27:03.169Z,49.04
2022-08-19T12:28:02.802Z,52.01
2022-08-19T12:29:02.379Z,49.33
2022-08-19T12:30:02.368Z,49.28
2022-08-19T12:31:02.340Z,49.57
2022-08-19T12:32:02.364Z,51.35
2022-08-19T12:33:02.340Z,51.45
2022-08-19T12:34:02.346Z,52.26
2022-08-19T12:35:02.322Z,52.70
2022-08-19T12:36:02.369Z,51.75
2022-08-19T12:37:02.330Z,52.51
2022-08-19T12:38:02.531Z,51.59
2022-08-19T12:39:02.320Z,50.38
2022-08-19T12:40:02.382Z,52.04
2022-08-19T12:41:02.315Z,51.81
2022-08-19T12:42:02.302Z,51.00
2022-08-19T12:43:02.298Z,49.55
2022-08-19T12:44:02.302Z,48.66
2022-08-19T12:45:02.293Z,49.90
2022-08-19T12:46:02.277Z,50.68
2022-08-19T12:47:02.389Z,52.36
2022-08-19T12:48:02.282Z,52.28
2022-08-19T12:49:05.149Z,51.67
2022-08-19T12:50:06.788Z,50.38
2022-08-19T12:51:03.251Z,51.32
2022-08-19T12:52:02.264Z,50.24
2022-08-19T12:53:02.233Z,51.20
2022-08-19T12:54:02.224Z,49.11